sensor_id;sensor_type;location;lat;lon;timestamp;P1;durP1;ratioP1;P2;durP2;ratioP2
6739;SDS011;3407;49.882;10.920;2023-03-17T00:04:22;3.77;;;3.50;;
6739;SDS011;3407;49.882;10.920;2023-03-17T00:09:19;5.23;;;3.30;;
6739;SDS011;3407;49.882;10.920;2023-03-17T00:14:16;4.50;;;3.67;;
6739;SDS011;3407;49.882;10.920;2023-03-17T00:19:14;4.60;;;3.70;;
6739;SDS011;3407;49.882;10.920;2023-03-17T00:24:25;4.10;;;3.50;;
6739;SDS011;3407;49.882;10.920;2023-03-17T00:29:21;4.67;;;3.60;;
6739;SDS011;3407;49.882;10.920;2023-03-17T00:34:20;3.60;;;3.23;;
6739;SDS011;3407;49.882;10.920;2023-03-17T00:39:17;4.07;;;3.37;;
6739;SDS011;3407;49.882;10.920;2023-03-17T00:44:13;3.57;;;3.37;;
6739;SDS011;3407;49.882;10.920;2023-03-17T00:49:17;3.57;;;3.27;;
6739;SDS011;3407;49.882;10.920;2023-03-17T00:54:15;3.97;;;3.57;;
6739;SDS011;3407;49.882;10.920;2023-03-17T00:59:34;3.43;;;3.23;;
6739;SDS011;3407;49.882;10.920;2023-03-17T01:04:36;3.77;;;3.20;;
6739;SDS011;3407;49.882;10.920;2023-03-17T01:09:32;5.27;;;3.23;;
6739;SDS011;3407;49.882;10.920;2023-03-17T01:14:29;3.50;;;3.20;;
6739;SDS011;3407;49.882;10.920;2023-03-17T01:19:24;5.00;;;3.33;;
6739;SDS011;3407;49.882;10.920;2023-03-17T01:24:20;4.00;;;3.70;;
6739;SDS011;3407;49.882;10.920;2023-03-17T01:29:16;4.00;;;3.70;;
6739;SDS011;3407;49.882;10.920;2023-03-17T01:34:12;5.70;;;3.43;;
6739;SDS011;3407;49.882;10.920;2023-03-17T01:39:10;4.00;;;3.70;;
6739;SDS011;3407;49.882;10.920;2023-03-17T01:44:12;6.63;;;3.90;;
6739;SDS011;3407;49.882;10.920;2023-03-17T01:49:18;7.87;;;4.67;;
6739;SDS011;3407;49.882;10.920;2023-03-17T01:54:33;4.40;;;4.10;;
6739;SDS011;3407;49.882;10.920;2023-03-17T01:59:38;4.40;;;4.00;;
6739;SDS011;3407;49.882;10.920;2023-03-17T02:04:38;3.83;;;3.33;;
6739;SDS011;3407;49.882;10.920;2023-03-17T02:09:34;5.40;;;3.30;;
6739;SDS011;3407;49.882;10.920;2023-03-17T02:14:32;4.07;;;3.30;;
6739;SDS011;3407;49.882;10.920;2023-03-17T02:19:28;3.20;;;3.00;;
6739;SDS011;3407;49.882;10.920;2023-03-17T02:24:32;3.20;;;3.00;;
6739;SDS011;3407;49.882;10.920;2023-03-17T02:29:32;3.27;;;3.07;;
6739;SDS011;3407;49.882;10.920;2023-03-17T02:34:30;3.30;;;3.10;;
6739;SDS011;3407;49.882;10.920;2023-03-17T02:39:26;3.20;;;3.00;;
6739;SDS011;3407;49.882;10.920;2023-03-17T02:44:27;3.57;;;3.27;;
6739;SDS011;3407;49.882;10.920;2023-03-17T02:49:23;4.50;;;3.50;;
6739;SDS011;3407;49.882;10.920;2023-03-17T02:54:24;3.90;;;3.60;;
6739;SDS011;3407;49.882;10.920;2023-03-17T02:59:24;3.57;;;3.23;;
6739;SDS011;3407;49.882;10.920;2023-03-17T03:04:21;7.17;;;3.33;;
6739;SDS011;3407;49.882;10.920;2023-03-17T03:09:20;3.67;;;3.37;;
6739;SDS011;3407;49.882;10.920;2023-03-17T03:14:16;3.90;;;3.53;;
6739;SDS011;3407;49.882;10.920;2023-03-17T03:19:12;5.77;;;3.40;;
6739;SDS011;3407;49.882;10.920;2023-03-17T03:24:10;5.30;;;3.47;;
6739;SDS011;3407;49.882;10.920;2023-03-17T03:29:09;3.60;;;3.30;;
6739;SDS011;3407;49.882;10.920;2023-03-17T03:34:04;4.47;;;3.27;;
6739;SDS011;3407;49.882;10.920;2023-03-17T03:39:00;6.17;;;3.83;;
6739;SDS011;3407;49.882;10.920;2023-03-17T03:43:57;3.73;;;3.43;;
6739;SDS011;3407;49.882;10.920;2023-03-17T03:48:53;3.97;;;3.60;;
6739;SDS011;3407;49.882;10.920;2023-03-17T03:53:52;3.90;;;3.20;;
6739;SDS011;3407;49.882;10.920;2023-03-17T03:58:48;5.53;;;3.60;;
6739;SDS011;3407;49.882;10.920;2023-03-17T04:03:45;4.17;;;3.77;;
6739;SDS011;3407;49.882;10.920;2023-03-17T04:08:41;3.57;;;3.33;;
6739;SDS011;3407;49.882;10.920;2023-03-17T04:13:37;4.67;;;4.13;;
6739;SDS011;3407;49.882;10.920;2023-03-17T04:18:33;4.23;;;3.87;;
6739;SDS011;3407;49.882;10.920;2023-03-17T04:23:31;9.60;;;4.07;;
6739;SDS011;3407;49.882;10.920;2023-03-17T04:28:26;4.33;;;3.93;;
6739;SDS011;3407;49.882;10.920;2023-03-17T04:33:22;5.97;;;4.20;;
6739;SDS011;3407;49.882;10.920;2023-03-17T04:38:17;4.03;;;3.73;;
6739;SDS011;3407;49.882;10.920;2023-03-17T04:43:13;4.40;;;3.30;;
6739;SDS011;3407;49.882;10.920;2023-03-17T04:48:08;3.97;;;3.60;;
6739;SDS011;3407;49.882;10.920;2023-03-17T04:53:04;4.03;;;3.73;;
6739;SDS011;3407;49.882;10.920;2023-03-17T04:58:00;5.33;;;3.97;;
6739;SDS011;3407;49.882;10.920;2023-03-17T05:02:56;5.20;;;4.07;;
6739;SDS011;3407;49.882;10.920;2023-03-17T05:07:51;3.73;;;3.47;;
6739;SDS011;3407;49.882;10.920;2023-03-17T05:12:47;4.87;;;4.37;;
6739;SDS011;3407;49.882;10.920;2023-03-17T05:17:42;6.83;;;3.70;;
6739;SDS011;3407;49.882;10.920;2023-03-17T05:22:38;6.43;;;4.00;;
6739;SDS011;3407;49.882;10.920;2023-03-17T05:27:34;4.30;;;4.00;;
6739;SDS011;3407;49.882;10.920;2023-03-17T05:32:30;6.10;;;3.70;;
6739;SDS011;3407;49.882;10.920;2023-03-17T05:37:26;4.40;;;3.90;;
6739;SDS011;3407;49.882;10.920;2023-03-17T05:42:22;4.13;;;3.83;;
6739;SDS011;3407;49.882;10.920;2023-03-17T05:47:17;4.10;;;3.80;;
6739;SDS011;3407;49.882;10.920;2023-03-17T05:52:13;5.33;;;4.83;;
6739;SDS011;3407;49.882;10.920;2023-03-17T05:57:08;3.83;;;3.53;;
6739;SDS011;3407;49.882;10.920;2023-03-17T06:02:04;3.70;;;3.23;;
6739;SDS011;3407;49.882;10.920;2023-03-17T06:07:00;3.43;;;3.13;;
6739;SDS011;3407;49.882;10.920;2023-03-17T06:11:55;3.97;;;3.50;;
6739;SDS011;3407;49.882;10.920;2023-03-17T06:16:51;3.93;;;3.10;;
6739;SDS011;3407;49.882;10.920;2023-03-17T06:21:47;3.70;;;3.40;;
6739;SDS011;3407;49.882;10.920;2023-03-17T06:26:42;3.50;;;3.20;;
6739;SDS011;3407;49.882;10.920;2023-03-17T06:31:38;3.63;;;3.33;;
6739;SDS011;3407;49.882;10.920;2023-03-17T06:36:34;5.67;;;3.37;;
6739;SDS011;3407;49.882;10.920;2023-03-17T06:41:30;3.97;;;3.30;;
6739;SDS011;3407;49.882;10.920;2023-03-17T06:46:25;4.47;;;3.33;;
6739;SDS011;3407;49.882;10.920;2023-03-17T06:51:21;4.30;;;3.07;;
6739;SDS011;3407;49.882;10.920;2023-03-17T06:56:16;7.67;;;4.70;;
6739;SDS011;3407;49.882;10.920;2023-03-17T07:01:12;9.93;;;5.90;;
6739;SDS011;3407;49.882;10.920;2023-03-17T07:06:08;8.97;;;6.07;;
6739;SDS011;3407;49.882;10.920;2023-03-17T07:11:04;7.60;;;4.20;;
6739;SDS011;3407;49.882;10.920;2023-03-17T07:16:00;9.17;;;4.33;;
6739;SDS011;3407;49.882;10.920;2023-03-17T07:20:57;9.70;;;5.50;;
6739;SDS011;3407;49.882;10.920;2023-03-17T07:25:52;7.10;;;3.80;;
6739;SDS011;3407;49.882;10.920;2023-03-17T07:30:48;5.03;;;3.13;;
6739;SDS011;3407;49.882;10.920;2023-03-17T07:35:44;8.57;;;3.63;;
6739;SDS011;3407;49.882;10.920;2023-03-17T07:40:41;5.27;;;2.70;;
6739;SDS011;3407;49.882;10.920;2023-03-17T07:45:37;3.13;;;2.20;;
6739;SDS011;3407;49.882;10.920;2023-03-17T07:50:33;4.23;;;2.20;;
6739;SDS011;3407;49.882;10.920;2023-03-17T07:55:30;5.87;;;2.00;;
6739;SDS011;3407;49.882;10.920;2023-03-17T08:00:26;4.70;;;2.27;;
6739;SDS011;3407;49.882;10.920;2023-03-17T08:05:22;4.60;;;3.03;;
6739;SDS011;3407;49.882;10.920;2023-03-17T08:10:18;8.17;;;3.20;;
6739;SDS011;3407;49.882;10.920;2023-03-17T08:15:14;3.77;;;1.97;;
6739;SDS011;3407;49.882;10.920;2023-03-17T08:20:10;8.57;;;3.00;;
6739;SDS011;3407;49.882;10.920;2023-03-17T08:25:06;2.00;;;1.60;;
6739;SDS011;3407;49.882;10.920;2023-03-17T08:30:03;2.17;;;1.80;;
6739;SDS011;3407;49.882;10.920;2023-03-17T08:34:59;1.67;;;1.43;;
6739;SDS011;3407;49.882;10.920;2023-03-17T08:39:55;4.03;;;2.10;;
6739;SDS011;3407;49.882;10.920;2023-03-17T08:44:51;3.07;;;1.87;;
6739;SDS011;3407;49.882;10.920;2023-03-17T08:49:46;3.60;;;1.73;;
6739;SDS011;3407;49.882;10.920;2023-03-17T08:54:42;4.87;;;2.00;;
6739;SDS011;3407;49.882;10.920;2023-03-17T08:59:37;2.20;;;1.70;;
6739;SDS011;3407;49.882;10.920;2023-03-17T09:04:33;1.90;;;1.30;;
6739;SDS011;3407;49.882;10.920;2023-03-17T09:09:33;3.00;;;1.73;;
6739;SDS011;3407;49.882;10.920;2023-03-17T09:14:29;1.40;;;1.30;;
6739;SDS011;3407;49.882;10.920;2023-03-17T09:19:25;2.63;;;1.50;;
6739;SDS011;3407;49.882;10.920;2023-03-17T09:24:20;2.83;;;1.57;;
6739;SDS011;3407;49.882;10.920;2023-03-17T09:29:16;3.07;;;1.67;;
6739;SDS011;3407;49.882;10.920;2023-03-17T09:34:12;3.43;;;1.30;;
6739;SDS011;3407;49.882;10.920;2023-03-17T09:39:08;1.80;;;1.30;;
6739;SDS011;3407;49.882;10.920;2023-03-17T09:44:17;4.70;;;1.80;;
6739;SDS011;3407;49.882;10.920;2023-03-17T09:49:46;3.07;;;2.00;;
6739;SDS011;3407;49.882;10.920;2023-03-17T09:54:45;1.93;;;1.63;;
6739;SDS011;3407;49.882;10.920;2023-03-17T09:59:44;1.60;;;1.30;;
6739;SDS011;3407;49.882;10.920;2023-03-17T10:04:41;1.67;;;1.37;;
6739;SDS011;3407;49.882;10.920;2023-03-17T10:09:44;2.30;;;1.13;;
6739;SDS011;3407;49.882;10.920;2023-03-17T10:15:01;1.87;;;1.27;;
6739;SDS011;3407;49.882;10.920;2023-03-17T10:20:23;1.43;;;1.30;;
6739;SDS011;3407;49.882;10.920;2023-03-17T10:25:22;1.43;;;1.10;;
6739;SDS011;3407;49.882;10.920;2023-03-17T10:30:22;2.40;;;1.27;;
6739;SDS011;3407;49.882;10.920;2023-03-17T10:35:18;2.17;;;1.33;;
6739;SDS011;3407;49.882;10.920;2023-03-17T10:40:20;3.20;;;1.40;;
6739;SDS011;3407;49.882;10.920;2023-03-17T10:45:26;7.37;;;3.40;;
6739;SDS011;3407;49.882;10.920;2023-03-17T10:50:27;3.63;;;1.37;;
6739;SDS011;3407;49.882;10.920;2023-03-17T10:55:43;1.40;;;1.27;;
6739;SDS011;3407;49.882;10.920;2023-03-17T11:00:56;1.97;;;1.40;;
6739;SDS011;3407;49.882;10.920;2023-03-17T11:06:02;2.10;;;1.23;;
6739;SDS011;3407;49.882;10.920;2023-03-17T11:10:58;4.10;;;1.30;;
6739;SDS011;3407;49.882;10.920;2023-03-17T11:16:07;1.23;;;1.13;;
6739;SDS011;3407;49.882;10.920;2023-03-17T11:21:10;2.97;;;2.20;;
6739;SDS011;3407;49.882;10.920;2023-03-17T11:26:21;2.10;;;1.70;;
6739;SDS011;3407;49.882;10.920;2023-03-17T11:41:44;2.00;;;1.50;;
6739;SDS011;3407;49.882;10.920;2023-03-17T11:47:07;1.33;;;1.20;;
6739;SDS011;3407;49.882;10.920;2023-03-17T12:02:47;1.67;;;1.33;;
6739;SDS011;3407;49.882;10.920;2023-03-17T12:07:49;1.33;;;1.23;;
6739;SDS011;3407;49.882;10.920;2023-03-17T12:12:50;1.37;;;1.10;;
6739;SDS011;3407;49.882;10.920;2023-03-17T12:17:53;2.10;;;1.90;;
6739;SDS011;3407;49.882;10.920;2023-03-17T12:22:54;1.57;;;1.47;;
6739;SDS011;3407;49.882;10.920;2023-03-17T12:33:24;1.90;;;0.80;;
6739;SDS011;3407;49.882;10.920;2023-03-17T12:38:27;1.37;;;1.13;;
6739;SDS011;3407;49.882;10.920;2023-03-17T12:54:39;3.23;;;2.00;;
6739;SDS011;3407;49.882;10.920;2023-03-17T12:59:40;1.70;;;1.20;;
6739;SDS011;3407;49.882;10.920;2023-03-17T13:04:38;2.77;;;2.00;;
6739;SDS011;3407;49.882;10.920;2023-03-17T13:14:48;3.03;;;1.63;;
6739;SDS011;3407;49.882;10.920;2023-03-17T13:19:50;1.83;;;1.03;;
6739;SDS011;3407;49.882;10.920;2023-03-17T13:24:51;2.30;;;1.30;;
6739;SDS011;3407;49.882;10.920;2023-03-17T13:29:47;2.03;;;1.33;;
6739;SDS011;3407;49.882;10.920;2023-03-17T13:34:43;2.10;;;0.90;;
6739;SDS011;3407;49.882;10.920;2023-03-17T13:39:51;4.37;;;2.30;;
6739;SDS011;3407;49.882;10.920;2023-03-17T13:50:31;2.87;;;1.73;;
6739;SDS011;3407;49.882;10.920;2023-03-17T13:55:30;3.43;;;1.30;;
6739;SDS011;3407;49.882;10.920;2023-03-17T14:00:28;1.53;;;1.00;;
6739;SDS011;3407;49.882;10.920;2023-03-17T14:05:27;1.50;;;1.40;;
6739;SDS011;3407;49.882;10.920;2023-03-17T14:10:27;1.10;;;1.10;;
6739;SDS011;3407;49.882;10.920;2023-03-17T14:15:31;1.40;;;0.90;;
6739;SDS011;3407;49.882;10.920;2023-03-17T14:20:31;2.37;;;1.63;;
6739;SDS011;3407;49.882;10.920;2023-03-17T14:25:33;2.00;;;1.13;;
6739;SDS011;3407;49.882;10.920;2023-03-17T14:30:33;1.27;;;1.00;;
6739;SDS011;3407;49.882;10.920;2023-03-17T14:35:31;1.70;;;1.27;;
6739;SDS011;3407;49.882;10.920;2023-03-17T14:40:29;1.43;;;1.30;;
6739;SDS011;3407;49.882;10.920;2023-03-17T14:45:47;1.30;;;1.20;;
6739;SDS011;3407;49.882;10.920;2023-03-17T14:50:52;3.17;;;2.07;;
6739;SDS011;3407;49.882;10.920;2023-03-17T14:55:50;3.33;;;2.77;;
6739;SDS011;3407;49.882;10.920;2023-03-17T15:00:47;1.53;;;1.13;;
6739;SDS011;3407;49.882;10.920;2023-03-17T15:06:01;2.50;;;1.17;;
6739;SDS011;3407;49.882;10.920;2023-03-17T15:11:00;1.90;;;1.10;;
6739;SDS011;3407;49.882;10.920;2023-03-17T15:15:57;2.20;;;1.30;;
6739;SDS011;3407;49.882;10.920;2023-03-17T15:20:57;1.47;;;1.37;;
6739;SDS011;3407;49.882;10.920;2023-03-17T15:25:55;3.70;;;1.00;;
6739;SDS011;3407;49.882;10.920;2023-03-17T15:30:51;1.20;;;1.03;;
6739;SDS011;3407;49.882;10.920;2023-03-17T15:35:50;1.07;;;1.00;;
6739;SDS011;3407;49.882;10.920;2023-03-17T15:40:46;3.03;;;1.70;;
6739;SDS011;3407;49.882;10.920;2023-03-17T15:45:41;1.70;;;1.60;;
6739;SDS011;3407;49.882;10.920;2023-03-17T15:50:39;1.53;;;1.43;;
6739;SDS011;3407;49.882;10.920;2023-03-17T15:55:34;3.03;;;2.70;;
6739;SDS011;3407;49.882;10.920;2023-03-17T16:00:30;1.73;;;1.63;;
6739;SDS011;3407;49.882;10.920;2023-03-17T16:05:28;1.77;;;1.57;;
6739;SDS011;3407;49.882;10.920;2023-03-17T16:10:26;1.40;;;1.30;;
6739;SDS011;3407;49.882;10.920;2023-03-17T16:15:25;2.63;;;1.60;;
6739;SDS011;3407;49.882;10.920;2023-03-17T16:20:26;2.40;;;2.10;;
6739;SDS011;3407;49.882;10.920;2023-03-17T16:25:26;3.10;;;1.70;;
6739;SDS011;3407;49.882;10.920;2023-03-17T16:30:24;3.07;;;1.90;;
6739;SDS011;3407;49.882;10.920;2023-03-17T16:35:23;2.80;;;1.93;;
6739;SDS011;3407;49.882;10.920;2023-03-17T16:40:23;4.23;;;2.40;;
6739;SDS011;3407;49.882;10.920;2023-03-17T16:45:27;5.33;;;3.43;;
6739;SDS011;3407;49.882;10.920;2023-03-17T16:50:28;4.80;;;3.40;;
6739;SDS011;3407;49.882;10.920;2023-03-17T16:55:26;4.63;;;4.23;;
6739;SDS011;3407;49.882;10.920;2023-03-17T17:00:24;3.87;;;3.00;;
6739;SDS011;3407;49.882;10.920;2023-03-17T17:05:23;3.27;;;2.73;;
6739;SDS011;3407;49.882;10.920;2023-03-17T17:10:20;5.67;;;2.67;;
6739;SDS011;3407;49.882;10.920;2023-03-17T17:15:18;7.87;;;2.73;;
6739;SDS011;3407;49.882;10.920;2023-03-17T17:20:16;4.43;;;2.97;;
6739;SDS011;3407;49.882;10.920;2023-03-17T17:25:15;13.17;;;5.97;;
6739;SDS011;3407;49.882;10.920;2023-03-17T17:30:19;26.33;;;14.27;;
6739;SDS011;3407;49.882;10.920;2023-03-17T17:35:18;3.70;;;3.00;;
6739;SDS011;3407;49.882;10.920;2023-03-17T17:40:15;6.07;;;2.90;;
6739;SDS011;3407;49.882;10.920;2023-03-17T17:45:13;6.43;;;3.37;;
6739;SDS011;3407;49.882;10.920;2023-03-17T17:50:11;3.40;;;2.97;;
6739;SDS011;3407;49.882;10.920;2023-03-17T17:55:12;2.47;;;1.90;;
6739;SDS011;3407;49.882;10.920;2023-03-17T18:00:10;3.83;;;2.33;;
6739;SDS011;3407;49.882;10.920;2023-03-17T18:05:08;5.03;;;2.53;;
6739;SDS011;3407;49.882;10.920;2023-03-17T18:10:04;4.60;;;2.67;;
6739;SDS011;3407;49.882;10.920;2023-03-17T18:15:00;4.50;;;3.10;;
6739;SDS011;3407;49.882;10.920;2023-03-17T18:19:56;15.47;;;6.87;;
6739;SDS011;3407;49.882;10.920;2023-03-17T18:24:52;20.13;;;8.20;;
6739;SDS011;3407;49.882;10.920;2023-03-17T18:29:47;17.70;;;8.10;;
6739;SDS011;3407;49.882;10.920;2023-03-17T18:34:44;21.13;;;8.93;;
6739;SDS011;3407;49.882;10.920;2023-03-17T18:39:40;18.03;;;6.63;;
6739;SDS011;3407;49.882;10.920;2023-03-17T18:44:37;14.83;;;6.47;;
6739;SDS011;3407;49.882;10.920;2023-03-17T18:49:33;23.60;;;9.73;;
6739;SDS011;3407;49.882;10.920;2023-03-17T18:54:29;18.33;;;8.53;;
6739;SDS011;3407;49.882;10.920;2023-03-17T18:59:25;17.07;;;8.40;;
6739;SDS011;3407;49.882;10.920;2023-03-17T19:04:21;13.57;;;5.27;;
6739;SDS011;3407;49.882;10.920;2023-03-17T19:09:16;9.20;;;4.27;;
6739;SDS011;3407;49.882;10.920;2023-03-17T19:14:12;12.17;;;5.40;;
6739;SDS011;3407;49.882;10.920;2023-03-17T19:19:08;10.90;;;4.20;;
6739;SDS011;3407;49.882;10.920;2023-03-17T19:24:03;4.67;;;3.70;;
6739;SDS011;3407;49.882;10.920;2023-03-17T19:28:59;8.27;;;4.07;;
6739;SDS011;3407;49.882;10.920;2023-03-17T19:33:55;8.03;;;4.57;;
6739;SDS011;3407;49.882;10.920;2023-03-17T19:38:50;7.43;;;3.87;;
6739;SDS011;3407;49.882;10.920;2023-03-17T19:43:46;19.07;;;8.17;;
6739;SDS011;3407;49.882;10.920;2023-03-17T19:48:41;12.23;;;6.80;;
6739;SDS011;3407;49.882;10.920;2023-03-17T19:53:37;11.27;;;5.60;;
6739;SDS011;3407;49.882;10.920;2023-03-17T19:58:32;7.27;;;5.43;;
6739;SDS011;3407;49.882;10.920;2023-03-17T20:03:28;8.37;;;5.43;;
6739;SDS011;3407;49.882;10.920;2023-03-17T20:08:24;15.47;;;6.20;;
6739;SDS011;3407;49.882;10.920;2023-03-17T20:13:20;18.13;;;8.47;;
6739;SDS011;3407;49.882;10.920;2023-03-17T20:18:16;7.20;;;4.10;;
6739;SDS011;3407;49.882;10.920;2023-03-17T20:23:12;11.20;;;4.33;;
6739;SDS011;3407;49.882;10.920;2023-03-17T20:28:09;4.97;;;3.93;;
6739;SDS011;3407;49.882;10.920;2023-03-17T20:33:05;9.37;;;4.87;;
6739;SDS011;3407;49.882;10.920;2023-03-17T20:38:02;7.43;;;4.17;;
6739;SDS011;3407;49.882;10.920;2023-03-17T20:42:57;5.87;;;3.90;;
6739;SDS011;3407;49.882;10.920;2023-03-17T20:47:53;7.43;;;4.23;;
6739;SDS011;3407;49.882;10.920;2023-03-17T20:52:49;9.97;;;6.77;;
6739;SDS011;3407;49.882;10.920;2023-03-17T20:57:45;8.30;;;5.07;;
6739;SDS011;3407;49.882;10.920;2023-03-17T21:02:41;13.97;;;5.30;;
6739;SDS011;3407;49.882;10.920;2023-03-17T21:07:36;5.97;;;3.53;;
6739;SDS011;3407;49.882;10.920;2023-03-17T21:12:32;5.70;;;3.97;;
6739;SDS011;3407;49.882;10.920;2023-03-17T21:17:28;4.57;;;3.67;;
6739;SDS011;3407;49.882;10.920;2023-03-17T21:22:23;7.60;;;4.03;;
6739;SDS011;3407;49.882;10.920;2023-03-17T21:27:19;9.73;;;5.83;;
6739;SDS011;3407;49.882;10.920;2023-03-17T21:32:15;6.30;;;4.30;;
6739;SDS011;3407;49.882;10.920;2023-03-17T21:37:10;4.20;;;3.80;;
6739;SDS011;3407;49.882;10.920;2023-03-17T21:42:06;6.17;;;4.30;;
6739;SDS011;3407;49.882;10.920;2023-03-17T21:47:03;4.93;;;3.30;;
6739;SDS011;3407;49.882;10.920;2023-03-17T21:51:59;3.90;;;2.90;;
6739;SDS011;3407;49.882;10.920;2023-03-17T21:56:55;3.27;;;2.90;;
6739;SDS011;3407;49.882;10.920;2023-03-17T22:01:51;5.13;;;3.40;;
6739;SDS011;3407;49.882;10.920;2023-03-17T22:06:47;4.03;;;3.63;;
6739;SDS011;3407;49.882;10.920;2023-03-17T22:11:42;3.93;;;3.07;;
6739;SDS011;3407;49.882;10.920;2023-03-17T22:16:38;3.33;;;2.70;;
6739;SDS011;3407;49.882;10.920;2023-03-17T22:21:34;4.43;;;3.23;;
6739;SDS011;3407;49.882;10.920;2023-03-17T22:26:29;2.90;;;2.60;;
6739;SDS011;3407;49.882;10.920;2023-03-17T22:31:26;3.27;;;2.97;;
6739;SDS011;3407;49.882;10.920;2023-03-17T22:36:23;7.63;;;3.87;;
6739;SDS011;3407;49.882;10.920;2023-03-17T22:41:21;5.43;;;3.47;;
6739;SDS011;3407;49.882;10.920;2023-03-17T22:46:18;5.60;;;3.67;;
6739;SDS011;3407;49.882;10.920;2023-03-17T22:51:15;7.27;;;3.03;;
6739;SDS011;3407;49.882;10.920;2023-03-17T22:56:13;3.07;;;2.63;;
6739;SDS011;3407;49.882;10.920;2023-03-17T23:01:10;6.73;;;2.83;;
6739;SDS011;3407;49.882;10.920;2023-03-17T23:06:07;4.43;;;3.10;;
6739;SDS011;3407;49.882;10.920;2023-03-17T23:11:05;4.13;;;3.40;;
6739;SDS011;3407;49.882;10.920;2023-03-17T23:16:02;4.57;;;3.20;;
6739;SDS011;3407;49.882;10.920;2023-03-17T23:20:58;3.47;;;3.17;;
6739;SDS011;3407;49.882;10.920;2023-03-17T23:25:55;4.37;;;3.30;;
6739;SDS011;3407;49.882;10.920;2023-03-17T23:30:51;3.47;;;3.17;;
6739;SDS011;3407;49.882;10.920;2023-03-17T23:35:48;3.67;;;3.30;;
6739;SDS011;3407;49.882;10.920;2023-03-17T23:40:44;4.87;;;3.40;;
6739;SDS011;3407;49.882;10.920;2023-03-17T23:45:40;5.23;;;3.83;;
6739;SDS011;3407;49.882;10.920;2023-03-17T23:50:38;4.73;;;3.80;;
6739;SDS011;3407;49.882;10.920;2023-03-17T23:55:34;4.73;;;4.10;;
